Time;durP1;ratioP1;P1;durP2;ratioP2;P2;SDS_P1;SDS_P2;PMS_P1;PMS_P2;Temp;Humidity;BMP_temperature;BMP_pressure;BME280_temperature;BME280_humidity;BME280_pressure;Samples;Min_cycle;Max_cycle;Signal;HPM_P1;HPM_P2
2021/11/10 00:00:11;;;;;;;12.53;6.80;;;2.70;99.90;;;;;;6148060;23;20151;-79
2021/11/10 00:02:37;;;;;;;12.37;6.83;;;2.60;99.90;;;;;;6146895;23;20156;-80
2021/11/10 00:05:04;;;;;;;11.23;6.97;;;2.50;99.90;;;;;;6147698;23;20183;-78
2021/11/10 00:07:30;;;;;;;12.90;7.30;;;2.50;99.90;;;;;;6147897;23;20155;-78
2021/11/10 00:09:55;;;;;;;10.53;6.33;;;2.50;99.90;;;;;;6147786;23;20156;-79
2021/11/10 00:12:22;;;;;;;11.10;6.90;;;2.50;99.90;;;;;;6147853;23;20170;-80
2021/11/10 00:14:47;;;;;;;10.30;6.10;;;2.50;99.90;;;;;;6148036;23;20194;-80
2021/11/10 00:17:13;;;;;;;10.60;7.17;;;2.60;99.90;;;;;;6146301;23;20435;-80
2021/11/10 00:19:39;;;;;;;12.93;6.57;;;2.60;99.90;;;;;;6146981;23;20164;-80
2021/11/10 00:22:05;;;;;;;10.30;6.47;;;2.60;99.90;;;;;;6146194;23;20488;-79
2021/11/10 00:24:31;;;;;;;11.40;7.10;;;2.60;99.90;;;;;;6148496;23;20639;-79
2021/11/10 00:26:56;;;;;;;13.03;7.77;;;2.60;99.90;;;;;;6145976;23;20166;-78
2021/11/10 00:29:22;;;;;;;10.50;6.63;;;2.50;99.90;;;;;;6146267;23;20156;-80
2021/11/10 00:31:47;;;;;;;11.33;6.30;;;2.50;99.90;;;;;;6145963;23;20171;-79
2021/11/10 00:34:13;;;;;;;12.93;7.03;;;2.50;99.90;;;;;;6146497;23;20549;-81
2021/11/10 00:36:38;;;;;;;14.73;7.17;;;2.40;99.90;;;;;;6148269;23;20163;-78
2021/11/10 00:39:06;;;;;;;12.50;6.87;;;2.50;99.90;;;;;;6149734;23;20156;-80
2021/11/10 00:41:32;;;;;;;11.30;7.50;;;2.50;99.90;;;;;;6148260;23;20233;-78
2021/11/10 00:44:01;;;;;;;9.57;6.30;;;2.50;99.90;;;;;;6148038;23;20192;-78
2021/11/10 00:46:30;;;;;;;12.53;6.23;;;2.50;99.90;;;;;;6149704;23;20156;-80
2021/11/10 00:48:56;;;;;;;10.67;7.23;;;2.50;99.90;;;;;;6149403;23;20231;-79
2021/11/10 00:51:22;;;;;;;12.20;6.80;;;2.40;99.90;;;;;;6148262;23;20214;-78
2021/11/10 00:53:48;;;;;;;11.13;6.70;;;2.30;99.90;;;;;;6149173;23;20266;-78
2021/11/10 00:56:13;;;;;;;9.70;6.27;;;2.30;99.90;;;;;;6148292;23;20198;-79
2021/11/10 00:58:39;;;;;;;10.30;6.67;;;2.30;99.90;;;;;;6149772;23;20152;-79
2021/11/10 01:01:05;;;;;;;9.87;6.50;;;2.30;99.90;;;;;;6147964;23;20671;-78
2021/11/10 01:03:31;;;;;;;11.73;6.23;;;2.20;99.90;;;;;;6148202;23;20201;-79
2021/11/10 01:05:58;;;;;;;7.77;6.20;;;2.20;99.90;;;;;;6147708;23;20163;-79
2021/11/10 01:08:24;;;;;;;11.47;7.03;;;2.30;99.90;;;;;;6147981;23;20164;-79
2021/11/10 01:10:50;;;;;;;10.93;6.17;;;2.20;99.90;;;;;;6147743;23;20600;-79
2021/11/10 01:13:16;;;;;;;10.23;6.47;;;2.20;99.90;;;;;;6149750;23;20187;-79
2021/11/10 01:15:42;;;;;;;8.73;5.70;;;2.20;99.90;;;;;;6147720;23;20513;-79
2021/11/10 01:18:08;;;;;;;11.67;6.70;;;2.10;99.90;;;;;;6149444;23;20703;-80
2021/11/10 01:20:34;;;;;;;9.90;6.57;;;2.10;99.90;;;;;;6149373;23;20156;-79
2021/11/10 01:23:00;;;;;;;8.23;5.80;;;2.10;99.90;;;;;;6149181;23;20887;-79
2021/11/10 01:25:26;;;;;;;11.80;6.93;;;2.10;99.90;;;;;;6149650;23;20148;-80
2021/11/10 01:27:53;;;;;;;9.67;6.43;;;2.10;99.90;;;;;;6147476;23;20240;-80
2021/11/10 01:30:19;;;;;;;10.73;6.87;;;2.00;99.90;;;;;;6149321;23;20177;-80
2021/11/10 01:32:45;;;;;;;10.70;6.77;;;2.00;99.90;;;;;;6148294;23;20612;-79
2021/11/10 01:35:11;;;;;;;11.77;7.10;;;2.00;99.90;;;;;;6147096;23;20583;-80
2021/11/10 01:37:37;;;;;;;11.50;7.23;;;2.00;99.90;;;;;;6147385;23;20224;-78
2021/11/10 01:40:06;;;;;;;11.43;6.90;;;1.90;99.90;;;;;;6147358;23;20159;-78
2021/11/10 01:42:32;;;;;;;13.10;7.10;;;1.90;99.90;;;;;;6149012;23;20170;-80
2021/11/10 01:44:58;;;;;;;13.13;6.53;;;1.90;99.90;;;;;;6147168;23;20191;-78
2021/11/10 01:47:24;;;;;;;10.13;6.07;;;1.90;99.90;;;;;;6146978;23;20160;-79
2021/11/10 01:49:50;;;;;;;13.53;7.23;;;1.90;99.90;;;;;;6148958;23;20549;-79
2021/11/10 01:52:16;;;;;;;13.87;7.10;;;1.90;99.90;;;;;;6149007;23;20550;-79
2021/11/10 01:54:43;;;;;;;11.57;7.40;;;1.90;99.90;;;;;;6148574;23;20171;-80
2021/11/10 01:57:10;;;;;;;13.63;8.03;;;2.00;99.90;;;;;;6146884;23;20160;-79
2021/11/10 01:59:48;;;;;;;11.87;7.87;;;2.00;99.90;;;;;;6148311;23;20183;-81
2021/11/10 02:02:24;;;;;;;9.77;6.00;;;2.10;99.90;;;;;;6148475;23;20140;-80
2021/11/10 02:04:50;;;;;;;9.63;5.77;;;2.10;99.90;;;;;;6146727;23;20671;-80
2021/11/10 02:07:18;;;;;;;8.67;5.33;;;2.20;99.90;;;;;;6148275;23;20159;-81
2021/11/10 02:09:44;;;;;;;8.23;5.47;;;2.10;99.90;;;;;;6147794;23;20255;-80
2021/11/10 02:12:11;;;;;;;7.63;5.27;;;2.00;99.90;;;;;;6146538;23;20164;-80
2021/11/10 02:14:39;;;;;;;9.33;5.73;;;2.00;99.90;;;;;;6146548;23;20196;-79
2021/11/10 02:17:06;;;;;;;8.17;5.23;;;2.00;99.90;;;;;;6146780;23;20191;-78
2021/11/10 02:19:32;;;;;;;7.03;4.83;;;1.90;99.90;;;;;;6147110;23;20163;-80
2021/11/10 02:22:00;;;;;;;5.63;4.50;;;1.90;99.90;;;;;;6147035;23;20186;-78
2021/11/10 02:24:29;;;;;;;7.63;4.67;;;1.90;99.90;;;;;;6147272;23;20235;-79
2021/11/10 02:26:55;;;;;;;6.37;4.27;;;1.90;99.90;;;;;;6146744;23;20159;-78
2021/11/10 02:29:24;;;;;;;6.90;3.97;;;1.90;99.90;;;;;;6148523;23;20159;-79
2021/11/10 02:31:51;;;;;;;5.60;3.70;;;1.90;99.90;;;;;;6146871;23;20163;-79
2021/11/10 02:34:17;;;;;;;5.70;3.73;;;1.90;99.90;;;;;;6148709;23;20176;-78
2021/11/10 02:36:44;;;;;;;7.33;3.87;;;1.90;99.90;;;;;;6148470;23;20498;-79
2021/11/10 02:39:14;;;;;;;6.53;4.10;;;1.80;99.90;;;;;;6148535;23;20242;-78
2021/11/10 02:41:40;;;;;;;5.00;3.50;;;1.80;99.90;;;;;;6149082;23;20199;-78
2021/11/10 02:44:07;;;;;;;9.17;5.27;;;1.80;99.90;;;;;;6146508;23;20187;-78
2021/11/10 02:46:34;;;;;;;6.03;3.97;;;1.70;99.90;;;;;;6148484;23;20909;-79
2021/11/10 02:49:00;;;;;;;6.83;3.90;;;1.70;99.90;;;;;;6147227;23;20164;-78
2021/11/10 02:51:26;;;;;;;7.20;4.43;;;1.70;99.90;;;;;;6148510;23;20186;-78
2021/11/10 02:53:51;;;;;;;7.07;4.70;;;1.70;99.90;;;;;;6146815;23;20187;-79
2021/11/10 02:56:17;;;;;;;7.30;4.77;;;1.70;99.90;;;;;;6146427;23;20167;-78
2021/11/10 02:58:44;;;;;;;7.10;4.33;;;1.60;99.90;;;;;;6148362;23;20239;-78
2021/11/10 03:01:10;;;;;;;7.47;4.10;;;1.60;99.90;;;;;;6148232;23;20164;-79
2021/11/10 03:03:35;;;;;;;7.57;4.23;;;1.60;99.90;;;;;;6148439;23;20254;-78
2021/11/10 03:06:01;;;;;;;7.27;4.40;;;1.60;99.90;;;;;;6147799;23;20716;-78
2021/11/10 03:08:26;;;;;;;6.47;4.60;;;1.60;99.90;;;;;;6146873;23;20555;-80
2021/11/10 03:10:52;;;;;;;6.03;3.87;;;1.50;99.90;;;;;;6146635;23;20160;-78
2021/11/10 03:13:18;;;;;;;6.20;4.20;;;1.50;99.90;;;;;;6146283;23;20548;-80
2021/11/10 03:15:46;;;;;;;4.93;3.50;;;1.50;99.90;;;;;;6148394;23;20151;-80
2021/11/10 03:18:13;;;;;;;5.30;4.20;;;1.60;99.90;;;;;;6148310;23;20156;-78
2021/11/10 03:20:40;;;;;;;8.37;4.40;;;1.50;99.90;;;;;;6148344;23;20604;-79
2021/11/10 03:23:06;;;;;;;5.87;3.53;;;1.50;99.90;;;;;;6148249;23;20172;-79
2021/11/10 03:25:32;;;;;;;5.77;4.13;;;1.50;99.90;;;;;;6145120;23;20185;-78
2021/11/10 03:27:59;;;;;;;5.90;3.90;;;1.50;99.90;;;;;;6146695;23;20172;-78
2021/11/10 03:30:25;;;;;;;6.80;4.33;;;1.40;99.90;;;;;;6147469;23;20152;-79
2021/11/10 03:32:51;;;;;;;5.70;3.80;;;1.40;99.90;;;;;;6149110;23;20869;-80
2021/11/10 03:35:19;;;;;;;6.60;4.20;;;1.40;99.90;;;;;;6149893;23;20151;-78
2021/11/10 03:37:44;;;;;;;5.80;4.30;;;1.40;99.90;;;;;;6146386;23;20167;-78
2021/11/10 03:40:11;;;;;;;6.73;4.03;;;1.40;99.90;;;;;;6146832;23;20173;-78
2021/11/10 03:42:37;;;;;;;6.77;4.50;;;1.40;99.90;;;;;;6146874;23;20160;-79
2021/11/10 03:45:04;;;;;;;5.30;4.10;;;1.40;99.90;;;;;;6148452;23;20187;-78
2021/11/10 03:47:30;;;;;;;6.43;4.30;;;1.40;99.90;;;;;;6148361;23;20612;-78
2021/11/10 03:49:56;;;;;;;6.57;4.30;;;1.30;99.90;;;;;;6146548;23;20166;-78
2021/11/10 03:52:21;;;;;;;6.00;4.33;;;1.30;99.90;;;;;;6146680;23;20163;-79
2021/11/10 03:54:47;;;;;;;5.20;4.20;;;1.30;99.90;;;;;;6148363;23;20191;-78
2021/11/10 03:57:13;;;;;;;7.13;4.27;;;1.40;99.90;;;;;;6146542;23;20178;-78
2021/11/10 03:59:39;;;;;;;6.93;4.03;;;1.40;99.90;;;;;;6146895;23;20541;-79
2021/11/10 04:02:06;;;;;;;5.77;4.40;;;1.40;99.90;;;;;;6146986;23;20246;-77
2021/11/10 04:04:32;;;;;;;4.83;3.63;;;1.40;99.90;;;;;;6148812;23;20632;-80
2021/11/10 04:06:58;;;;;;;6.30;3.67;;;1.30;99.90;;;;;;6146864;23;20171;-79
2021/11/10 04:09:23;;;;;;;6.83;4.00;;;1.20;99.90;;;;;;6146581;23;20591;-78
2021/11/10 04:11:49;;;;;;;7.23;4.10;;;1.20;99.90;;;;;;6146569;23;20615;-78
2021/11/10 04:14:15;;;;;;;5.47;4.00;;;1.30;99.90;;;;;;6146358;23;20203;-78
2021/11/10 04:16:41;;;;;;;6.00;4.00;;;1.20;99.90;;;;;;6146459;23;20159;-78
2021/11/10 04:19:07;;;;;;;5.20;4.03;;;1.20;99.90;;;;;;6146182;23;20175;-78
2021/11/10 04:21:33;;;;;;;7.37;4.00;;;1.10;99.90;;;;;;6146772;23;20733;-78
2021/11/10 04:23:59;;;;;;;6.40;4.00;;;1.10;99.90;;;;;;6148469;23;20184;-79
2021/11/10 04:26:29;;;;;;;4.23;3.77;;;1.20;99.90;;;;;;6148398;23;20207;-79
2021/11/10 04:28:56;;;;;;;6.83;3.90;;;1.20;99.90;;;;;;6148061;23;20244;-79
2021/11/10 04:31:22;;;;;;;5.53;4.10;;;1.10;99.90;;;;;;6146446;23;20162;-78
2021/11/10 04:33:48;;;;;;;5.27;3.80;;;1.00;99.90;;;;;;6147976;23;20524;-77
2021/11/10 04:36:15;;;;;;;5.53;3.60;;;1.00;99.90;;;;;;6146691;23;20159;-78
2021/11/10 04:38:40;;;;;;;5.83;4.03;;;0.90;99.90;;;;;;6148571;23;20152;-77
2021/11/10 04:41:06;;;;;;;5.87;3.80;;;1.00;99.90;;;;;;6146339;23;20190;-78
2021/11/10 04:43:32;;;;;;;7.33;4.40;;;0.90;99.90;;;;;;6146389;23;20543;-77
2021/11/10 04:46:12;;;;;;;5.67;3.80;;;0.80;99.90;;;;;;6147995;23;20160;-78
2021/11/10 04:48:39;;;;;;;5.30;3.53;;;0.80;99.90;;;;;;6147104;23;20159;-79
2021/11/10 04:51:09;;;;;;;5.47;3.60;;;0.90;99.90;;;;;;6148827;23;20235;-78
2021/11/10 04:53:41;;;;;;;6.73;4.20;;;0.90;99.90;;;;;;6148650;23;20211;-77
2021/11/10 04:56:07;;;;;;;6.90;4.50;;;0.90;99.90;;;;;;6146580;23;20240;-79
2021/11/10 04:58:33;;;;;;;6.03;4.43;;;1.00;99.90;;;;;;6149036;23;20558;-77
2021/11/10 05:00:59;;;;;;;6.87;4.47;;;0.80;99.90;;;;;;6146631;23;20164;-77
2021/11/10 05:03:25;;;;;;;7.00;4.07;;;0.80;99.90;;;;;;6148633;23;20190;-81
2021/11/10 05:05:50;;;;;;;5.43;3.40;;;0.90;99.90;;;;;;6147965;23;20155;-79
2021/11/10 05:08:17;;;;;;;5.93;3.93;;;0.80;99.90;;;;;;6149494;23;20486;-78
2021/11/10 05:10:42;;;;;;;6.17;4.63;;;0.80;99.90;;;;;;6147521;23;20163;-80
2021/11/10 05:13:08;;;;;;;6.07;4.10;;;0.80;99.90;;;;;;6147156;23;20504;-78
2021/11/10 05:15:34;;;;;;;4.43;3.67;;;0.80;99.90;;;;;;6148137;23;20149;-79
2021/11/10 05:18:00;;;;;;;5.67;4.07;;;0.80;99.90;;;;;;6146924;23;20168;-79
2021/11/10 05:20:26;;;;;;;6.00;4.00;;;1.00;99.90;;;;;;6149559;23;20585;-77
2021/11/10 05:22:52;;;;;;;7.07;3.93;;;1.00;99.90;;;;;;6148166;23;20167;-77
2021/11/10 05:25:18;;;;;;;5.23;3.67;;;1.00;99.90;;;;;;6149356;23;20223;-79
2021/11/10 05:27:44;;;;;;;7.67;4.10;;;0.90;99.90;;;;;;6150679;23;20159;-78
2021/11/10 05:30:12;;;;;;;8.43;4.63;;;0.80;99.90;;;;;;6149097;23;20159;-79
2021/11/10 05:32:38;;;;;;;6.77;4.10;;;0.70;99.90;;;;;;6149028;23;20163;-80
2021/11/10 05:35:05;;;;;;;6.53;4.27;;;0.70;99.90;;;;;;6149864;23;20167;-77
2021/11/10 05:37:32;;;;;;;7.13;4.23;;;0.70;99.90;;;;;;6148069;23;20243;-78
2021/11/10 05:39:58;;;;;;;7.17;4.53;;;0.70;99.90;;;;;;6150612;23;20160;-78
2021/11/10 05:42:25;;;;;;;6.63;4.53;;;0.70;99.90;;;;;;6150018;23;20222;-79
2021/11/10 05:44:51;;;;;;;11.13;6.97;;;0.70;99.90;;;;;;6149757;23;20187;-78
2021/11/10 05:47:17;;;;;;;9.67;6.07;;;0.60;99.90;;;;;;6148446;23;20215;-78
2021/11/10 05:49:43;;;;;;;10.47;6.53;;;0.60;99.90;;;;;;6147890;23;20160;-80
2021/11/10 05:52:09;;;;;;;11.17;6.37;;;0.60;99.90;;;;;;6148333;23;20207;-77
2021/11/10 05:54:37;;;;;;;9.37;6.63;;;0.60;99.90;;;;;;6149582;23;20180;-77
2021/11/10 05:57:03;;;;;;;9.97;7.00;;;0.60;99.90;;;;;;6149619;23;20159;-78
2021/11/10 05:59:28;;;;;;;9.27;6.73;;;0.70;99.90;;;;;;6149675;23;20187;-78
2021/11/10 06:01:54;;;;;;;12.13;10.57;;;0.70;99.90;;;;;;6149654;23;20571;-80
2021/11/10 06:04:20;;;;;;;12.93;9.63;;;0.60;99.90;;;;;;6149525;23;20259;-78
2021/11/10 06:06:45;;;;;;;9.40;7.40;;;0.60;99.90;;;;;;6147250;23;20168;-78
2021/11/10 06:09:11;;;;;;;8.60;6.40;;;0.60;99.90;;;;;;6149602;23;20148;-78
2021/11/10 06:11:36;;;;;;;10.93;6.90;;;0.60;99.90;;;;;;6148999;23;20158;-78
2021/11/10 06:14:02;;;;;;;8.67;6.27;;;0.60;99.90;;;;;;6147402;23;20286;-78
2021/11/10 06:16:29;;;;;;;8.93;6.10;;;0.60;99.90;;;;;;6147120;23;20167;-80
2021/11/10 06:18:55;;;;;;;10.33;6.37;;;0.50;99.90;;;;;;6147615;23;20174;-79
2021/11/10 06:21:20;;;;;;;9.00;5.73;;;0.50;99.90;;;;;;6148690;23;20154;-80
2021/11/10 06:23:46;;;;;;;9.77;5.97;;;0.50;99.90;;;;;;6148388;23;20188;-80
2021/11/10 06:26:12;;;;;;;8.10;5.63;;;0.60;99.90;;;;;;6148569;23;20227;-79
2021/11/10 06:28:37;;;;;;;9.87;5.50;;;0.60;99.90;;;;;;6146811;23;20168;-79
2021/11/10 06:31:03;;;;;;;8.17;5.77;;;0.40;99.90;;;;;;6148522;23;20201;-79
2021/11/10 06:33:29;;;;;;;8.67;6.33;;;0.40;99.90;;;;;;6146322;23;20195;-80
2021/11/10 06:35:55;;;;;;;7.60;5.57;;;0.40;99.90;;;;;;6146507;23;20214;-80
2021/11/10 06:38:20;;;;;;;6.83;5.47;;;0.40;99.90;;;;;;6147989;23;20546;-80
2021/11/10 06:40:46;;;;;;;8.80;5.80;;;0.40;99.90;;;;;;6146692;23;20163;-79
2021/11/10 06:43:12;;;;;;;8.27;5.63;;;0.50;99.90;;;;;;6147958;23;20202;-79
2021/11/10 06:45:37;;;;;;;9.00;5.60;;;0.50;99.90;;;;;;6147242;23;20167;-80
2021/11/10 06:48:04;;;;;;;7.90;5.00;;;0.50;99.90;;;;;;6147466;23;20160;-78
2021/11/10 06:50:29;;;;;;;10.30;5.20;;;0.50;99.90;;;;;;6147308;23;20939;-79
2021/11/10 06:52:55;;;;;;;6.60;4.63;;;0.50;99.90;;;;;;6147526;23;20163;-78
2021/11/10 06:55:20;;;;;;;6.87;4.40;;;0.40;99.90;;;;;;6147071;23;20168;-80
2021/11/10 06:57:46;;;;;;;5.93;4.27;;;0.50;99.90;;;;;;6148932;23;20156;-79
2021/11/10 07:00:15;;;;;;;5.40;4.00;;;0.50;99.90;;;;;;6147145;23;20159;-80
2021/11/10 07:02:41;;;;;;;7.47;3.97;;;0.40;99.90;;;;;;6141051;23;20251;-78
2021/11/10 07:05:07;;;;;;;5.00;3.40;;;0.50;99.90;;;;;;6148727;23;20667;-79
2021/11/10 07:07:33;;;;;;;5.87;3.40;;;0.50;99.90;;;;;;6148426;23;20159;-79
2021/11/10 07:09:59;;;;;;;4.90;3.53;;;0.50;99.90;;;;;;6148206;23;20580;-79
2021/11/10 07:12:24;;;;;;;6.03;4.27;;;0.50;99.90;;;;;;6146837;23;20267;-79
2021/11/10 07:14:51;;;;;;;6.77;3.60;;;0.40;99.90;;;;;;6146745;23;20954;-78
2021/11/10 07:17:16;;;;;;;6.43;4.10;;;0.50;99.90;;;;;;6145236;23;20508;-79
2021/11/10 07:19:42;;;;;;;6.33;4.10;;;0.50;99.90;;;;;;6147967;23;20155;-78
2021/11/10 07:22:08;;;;;;;5.23;3.87;;;0.60;99.90;;;;;;6148876;23;20164;-79
2021/11/10 07:24:33;;;;;;;9.20;4.70;;;0.70;99.90;;;;;;6146715;23;20199;-79
2021/11/10 07:26:59;;;;;;;6.47;4.20;;;0.70;99.90;;;;;;6146288;23;20206;-79
2021/11/10 07:29:26;;;;;;;6.43;3.87;;;0.80;99.90;;;;;;6146190;23;20940;-78
2021/11/10 07:31:52;;;;;;;5.53;4.37;;;0.80;99.90;;;;;;6148099;23;20205;-79
2021/11/10 07:34:18;;;;;;;5.43;4.50;;;0.80;99.90;;;;;;6146529;23;20187;-78
2021/11/10 07:36:44;;;;;;;6.17;4.27;;;0.90;99.90;;;;;;6147884;23;21018;-78
2021/11/10 07:39:11;;;;;;;6.80;4.40;;;0.90;99.90;;;;;;6146632;23;20166;-78
2021/11/10 07:41:36;;;;;;;5.77;4.37;;;1.00;99.90;;;;;;6147723;23;20263;-78
2021/11/10 07:44:03;;;;;;;6.77;5.23;;;1.00;99.90;;;;;;6148270;23;20215;-78
2021/11/10 07:46:31;;;;;;;5.97;4.40;;;1.00;99.90;;;;;;6145888;23;20263;-79
2021/11/10 07:48:57;;;;;;;7.53;5.03;;;1.00;99.90;;;;;;6146554;23;20168;-78
2021/11/10 07:51:23;;;;;;;8.47;5.57;;;1.00;99.90;;;;;;6147253;23;20159;-79
2021/11/10 07:53:49;;;;;;;7.83;6.00;;;1.30;99.90;;;;;;6149095;23;20314;-80
2021/11/10 07:56:15;;;;;;;7.53;5.63;;;1.30;99.90;;;;;;6148587;23;20156;-79
2021/11/10 07:58:40;;;;;;;8.33;5.80;;;1.50;99.90;;;;;;6146761;23;20171;-79
2021/11/10 08:01:08;;;;;;;7.70;5.67;;;1.40;99.90;;;;;;6148432;23;20160;-78
2021/11/10 08:03:34;;;;;;;9.53;5.77;;;1.40;99.90;;;;;;6147293;23;20536;-78
2021/11/10 08:06:00;;;;;;;10.47;6.50;;;1.60;99.90;;;;;;6146863;23;20159;-79
2021/11/10 08:08:26;;;;;;;7.57;5.20;;;1.70;99.90;;;;;;6148824;23;20159;-78
2021/11/10 08:10:57;;;;;;;9.20;6.50;;;1.80;99.90;;;;;;6146735;23;20159;-79
2021/11/10 08:13:24;;;;;;;7.43;6.03;;;1.90;99.90;;;;;;6148476;23;20191;-78
2021/11/10 08:15:51;;;;;;;8.87;6.23;;;2.00;99.90;;;;;;6146578;23;20171;-79
2021/11/10 08:18:17;;;;;;;8.07;6.00;;;2.00;99.90;;;;;;6147062;23;20167;-78
2021/11/10 08:20:43;;;;;;;8.23;5.57;;;2.10;99.90;;;;;;6146425;23;20603;-79
2021/11/10 08:23:12;;;;;;;8.33;5.83;;;2.20;99.90;;;;;;6145133;23;20187;-80
2021/11/10 08:25:38;;;;;;;7.47;5.50;;;2.30;99.90;;;;;;6145384;23;20160;-78
2021/11/10 08:28:04;;;;;;;6.83;5.60;;;2.40;99.90;;;;;;6141299;23;20164;-79
2021/11/10 08:30:29;;;;;;;9.50;5.50;;;2.50;99.90;;;;;;6141423;23;20211;-80
2021/11/10 08:32:55;;;;;;;7.37;5.50;;;2.70;99.90;;;;;;6143454;23;20156;-80
2021/11/10 08:35:21;;;;;;;8.13;6.07;;;2.80;99.90;;;;;;6141157;23;20438;-80
2021/11/10 08:37:49;;;;;;;7.77;6.03;;;2.80;99.90;;;;;;6141573;23;20226;-78
2021/11/10 08:40:15;;;;;;;8.23;6.20;;;2.70;99.90;;;;;;6144166;23;20160;-80
2021/11/10 08:42:40;;;;;;;7.00;5.50;;;2.70;99.90;;;;;;6145746;23;20241;-80
2021/11/10 08:45:11;;;;;;;7.53;5.63;;;2.70;99.90;;;;;;6144453;23;20191;-78
2021/11/10 08:47:39;;;;;;;8.33;6.13;;;2.80;99.90;;;;;;6146177;23;20144;-78
2021/11/10 08:50:08;;;;;;;7.33;5.97;;;2.80;99.90;;;;;;6145934;23;20155;-78
2021/11/10 08:52:37;;;;;;;10.07;5.77;;;3.10;99.90;;;;;;6144277;23;20206;-78
2021/11/10 08:55:08;;;;;;;8.30;5.90;;;3.10;99.90;;;;;;6145664;23;20230;-77
2021/11/10 08:57:35;;;;;;;9.03;5.63;;;3.30;99.90;;;;;;6147456;23;20148;-79
2021/11/10 09:00:06;;;;;;;8.27;5.57;;;3.30;99.90;;;;;;6148369;23;20187;-79
2021/11/10 09:02:32;;;;;;;9.57;6.37;;;3.50;99.90;;;;;;6147524;23;20238;-77
2021/11/10 09:04:58;;;;;;;11.87;6.90;;;3.60;99.90;;;;;;6146241;23;20196;-78
2021/11/10 09:07:23;;;;;;;6.97;5.67;;;3.80;99.90;;;;;;6147772;23;20163;-77
2021/11/10 09:09:49;;;;;;;9.17;5.70;;;4.00;99.90;;;;;;6147704;23;20160;-78
2021/11/10 09:12:15;;;;;;;6.87;5.13;;;4.10;99.90;;;;;;6146346;23;20159;-79
2021/11/10 09:14:40;;;;;;;8.77;6.30;;;4.30;99.90;;;;;;6148525;23;20195;-79
2021/11/10 09:17:06;;;;;;;8.40;5.90;;;4.40;99.90;;;;;;6148173;23;20160;-78
2021/11/10 09:19:32;;;;;;;8.30;6.30;;;4.60;99.90;;;;;;6146008;23;20195;-79
2021/11/10 09:21:58;;;;;;;9.80;7.00;;;4.90;99.90;;;;;;6145665;23;20155;-78
2021/11/10 09:24:23;;;;;;;14.97;10.40;;;5.10;99.90;;;;;;6147510;23;20425;-78
2021/11/10 09:26:50;;;;;;;31.97;21.27;;;5.20;99.90;;;;;;6146222;23;20170;-78
2021/11/10 09:29:18;;;;;;;20.23;13.97;;;5.30;99.90;;;;;;6145287;23;20160;-79
2021/11/10 09:31:43;;;;;;;14.10;8.73;;;5.50;99.90;;;;;;6148129;23;20187;-80
2021/11/10 09:34:12;;;;;;;7.53;6.27;;;5.80;99.90;;;;;;6151767;23;20226;-77
2021/11/10 09:36:46;;;;;;;9.50;6.20;;;6.00;99.90;;;;;;6151195;23;20183;-79
2021/11/10 09:39:20;;;;;;;12.07;7.27;;;6.30;99.90;;;;;;6150183;23;20572;-80
2021/11/10 09:41:53;;;;;;;8.13;6.30;;;6.50;99.90;;;;;;6149605;23;20174;-78
2021/11/10 09:44:22;;;;;;;8.87;5.93;;;6.70;99.90;;;;;;6152800;23;20521;-79
2021/11/10 09:46:50;;;;;;;7.80;5.67;;;6.80;99.90;;;;;;6150947;23;20438;-78
2021/11/10 09:49:15;;;;;;;14.20;9.80;;;6.80;99.90;;;;;;6150866;23;20404;-79
2021/11/10 09:51:43;;;;;;;8.17;6.17;;;6.90;99.90;;;;;;6153025;23;20204;-80
2021/11/10 09:54:11;;;;;;;8.13;6.50;;;6.80;99.90;;;;;;6150603;23;20188;-81
2021/11/10 09:56:37;;;;;;;10.13;7.47;;;6.80;99.90;;;;;;6150685;23;20560;-78
2021/11/10 09:59:03;;;;;;;9.37;6.90;;;6.90;99.90;;;;;;6152649;23;20162;-79
2021/11/10 10:01:31;;;;;;;6.57;5.10;;;6.80;99.90;;;;;;6148880;23;20179;-78
2021/11/10 10:03:57;;;;;;;8.07;4.77;;;6.70;99.90;;;;;;6151042;23;20187;-78
2021/11/10 10:06:24;;;;;;;5.87;4.33;;;6.80;99.90;;;;;;6149813;23;20156;-80
2021/11/10 10:08:50;;;;;;;6.80;4.33;;;6.80;99.90;;;;;;6145666;23;20191;-78
2021/11/10 10:11:16;;;;;;;6.30;4.70;;;6.90;99.90;;;;;;6146010;23;20155;-79
2021/11/10 10:13:42;;;;;;;6.17;3.83;;;7.00;99.90;;;;;;6144874;23;20203;-78
2021/11/10 10:16:09;;;;;;;4.83;4.27;;;7.10;99.90;;;;;;6144931;23;20195;-78
2021/11/10 10:18:35;;;;;;;4.40;3.73;;;7.30;99.90;;;;;;6147863;23;20226;-80
2021/11/10 10:21:00;;;;;;;5.30;3.67;;;7.40;99.90;;;;;;6147680;23;20211;-79
2021/11/10 10:23:39;;;;;;;5.57;4.13;;;7.60;99.90;;;;;;6148115;23;20186;-80
2021/11/10 10:26:11;;;;;;;7.53;4.13;;;7.80;99.90;;;;;;6146390;23;20184;-78
2021/11/10 10:28:43;;;;;;;7.00;4.37;;;8.00;99.90;;;;;;6145481;23;20160;-79
2021/11/10 10:31:12;;;;;;;6.03;3.90;;;8.20;99.90;;;;;;6144964;23;20551;-80
2021/11/10 10:33:40;;;;;;;5.27;3.77;;;8.40;99.90;;;;;;6146885;23;20179;-79
2021/11/10 10:36:09;;;;;;;4.57;3.87;;;8.60;99.90;;;;;;6147247;23;20160;-79
2021/11/10 10:38:41;;;;;;;5.43;3.40;;;8.80;99.90;;;;;;6145435;23;20166;-80
2021/11/10 10:41:08;;;;;;;3.97;2.87;;;9.00;99.90;;;;;;6143800;23;20195;-79
2021/11/10 10:43:38;;;;;;;5.77;2.83;;;9.20;99.90;;;;;;6145727;23;20558;-80
2021/11/10 10:46:04;;;;;;;3.10;2.80;;;9.30;99.90;;;;;;6145039;23;20158;-81
2021/11/10 10:48:30;;;;;;;4.13;3.20;;;9.40;99.90;;;;;;6146491;23;20152;-80
2021/11/10 10:51:13;;;;;;;4.10;2.60;;;9.40;99.90;;;;;;6144535;23;20164;-81
2021/11/10 10:53:44;;;;;;;3.07;2.70;;;9.40;99.90;;;;;;6146348;23;20567;-81
2021/11/10 10:56:17;;;;;;;4.67;3.70;;;9.50;99.90;;;;;;6144159;23;20195;-82
2021/11/10 10:58:44;;;;;;;3.07;2.77;;;9.50;99.90;;;;;;6146571;23;20147;-80
2021/11/10 11:01:31;;;;;;;4.03;2.80;;;9.40;99.90;;;;;;6140923;23;20655;-80
2021/11/10 11:04:04;;;;;;;3.53;2.37;;;9.40;99.90;;;;;;6141635;23;20195;-80
2021/11/10 11:06:45;;;;;;;2.87;2.47;;;9.60;99.90;;;;;;6144178;23;20156;-80
2021/11/10 11:09:25;;;;;;;2.90;2.50;;;9.50;99.90;;;;;;6142504;23;20226;-79
2021/11/10 11:12:12;;;;;;;3.57;2.60;;;9.60;99.90;;;;;;6143771;23;20656;-79
2021/11/10 11:14:53;;;;;;;3.10;2.50;;;9.60;99.90;;;;;;6145340;23;20308;-80
2021/11/10 11:17:18;;;;;;;5.23;2.80;;;9.60;99.90;;;;;;6144206;23;20147;-78
2021/11/10 11:20:26;;;;;;;2.60;2.40;;;9.60;99.90;;;;;;6144639;23;20878;-80
2021/11/10 11:22:56;;;;;;;3.00;2.23;;;9.50;99.90;;;;;;6146990;23;20164;-81
2021/11/10 11:25:28;;;;;;;3.47;2.50;;;9.30;99.90;;;;;;6145840;23;20631;-79
2021/11/10 11:28:03;;;;;;;4.13;2.63;;;9.20;99.90;;;;;;6145585;23;20159;-81
2021/11/10 11:30:38;;;;;;;3.20;2.33;;;9.20;99.90;;;;;;6146268;23;20170;-81
2021/11/10 11:33:09;;;;;;;3.97;2.60;;;9.20;99.90;;;;;;6145313;23;20211;-81
2021/11/10 11:35:38;;;;;;;3.63;2.20;;;9.20;99.90;;;;;;6145244;23;20150;-80
2021/11/10 11:38:12;;;;;;;3.20;2.10;;;9.20;99.90;;;;;;6143548;23;20159;-82
2021/11/10 11:40:39;;;;;;;3.43;2.07;;;9.20;99.90;;;;;;6145328;23;20860;-82
2021/11/10 11:43:08;;;;;;;2.90;2.53;;;9.20;99.90;;;;;;6143853;23;20155;-80
2021/11/10 11:45:36;;;;;;;3.47;2.30;;;9.30;99.90;;;;;;6145605;23;20239;-80
2021/11/10 11:48:04;;;;;;;3.73;2.57;;;9.30;99.90;;;;;;6143161;23;20197;-79
2021/11/10 11:50:30;;;;;;;3.10;2.20;;;9.60;99.90;;;;;;6146143;23;20212;-80
2021/11/10 11:52:57;;;;;;;6.40;2.67;;;9.60;99.90;;;;;;6145746;23;20214;-80
2021/11/10 11:55:24;;;;;;;6.07;3.30;;;9.70;99.90;;;;;;6144104;23;20194;-80
2021/11/10 11:58:05;;;;;;;4.47;2.93;;;9.70;99.90;;;;;;6143870;23;20607;-80
2021/11/10 12:00:54;;;;;;;5.80;3.27;;;9.70;99.90;;;;;;6143674;23;20163;-79
2021/11/10 12:03:27;;;;;;;7.43;3.37;;;9.70;99.90;;;;;;6142800;23;20183;-81
2021/11/10 12:06:02;;;;;;;7.37;3.73;;;9.70;99.90;;;;;;6143537;23;20155;-81
2021/11/10 12:08:47;;;;;;;6.33;3.40;;;9.60;99.90;;;;;;6144014;23;20163;-80
2021/11/10 12:11:19;;;;;;;4.80;3.03;;;9.60;99.90;;;;;;6144292;23;20182;-79
2021/11/10 12:14:11;;;;;;;4.77;3.10;;;9.50;99.90;;;;;;6150785;23;20191;-84
2021/11/10 12:17:05;;;;;;;6.13;3.40;;;9.40;99.90;;;;;;6147992;23;20164;-83
2021/11/10 12:19:53;;;;;;;8.57;3.30;;;9.40;99.90;;;;;;6147644;23;20160;-88
2021/11/10 12:22:21;;;;;;;5.97;3.47;;;9.40;99.90;;;;;;6148045;23;20187;-82
2021/11/10 12:24:48;;;;;;;5.10;3.43;;;9.50;99.90;;;;;;6148185;23;20217;-80
2021/11/10 12:27:31;;;;;;;5.77;3.50;;;9.70;99.90;;;;;;6149496;23;20175;-86
2021/11/10 12:30:03;;;;;;;6.33;3.60;;;9.70;99.90;;;;;;6147944;23;20188;-84
2021/11/10 12:32:28;;;;;;;4.97;3.60;;;9.70;99.90;;;;;;6148657;23;20160;-83
2021/11/10 12:34:55;;;;;;;7.07;3.33;;;9.80;99.90;;;;;;6148143;23;20202;-84
2021/11/10 12:37:23;;;;;;;5.23;3.33;;;9.80;99.90;;;;;;6149728;23;20151;-82
2021/11/10 12:39:49;;;;;;;7.20;3.80;;;9.80;99.90;;;;;;6146664;23;20167;-80
2021/11/10 12:42:16;;;;;;;7.87;3.53;;;10.00;99.90;;;;;;6147716;23;20301;-85
2021/11/10 12:44:48;;;;;;;4.33;3.37;;;9.90;99.90;;;;;;6148733;23;20234;-82
2021/11/10 12:47:15;;;;;;;7.00;3.63;;;10.00;99.90;;;;;;6149190;23;20144;-85
2021/11/10 12:49:45;;;;;;;7.00;2.97;;;10.10;99.90;;;;;;6150651;23;20166;-82
2021/11/10 12:52:15;;;;;;;4.40;3.23;;;10.10;99.90;;;;;;6148014;23;20167;-80
2021/11/10 12:55:15;;;;;;;6.03;2.97;;;10.20;99.90;;;;;;6150716;23;20798;-79
2021/11/10 12:57:41;;;;;;;4.70;3.00;;;10.30;99.90;;;;;;6151470;23;20160;-79